Time;durP1;ratioP1;P1;durP2;ratioP2;P2;SDS_P1;SDS_P2;PMS_P1;PMS_P2;Temp;Humidity;BMP_temperature;BMP_pressure;BME280_temperature;BME280_humidity;BME280_pressure;Samples;Min_cycle;Max_cycle;Signal;HPM_P1;HPM_P2
2023/07/24 00:02:09;;;;;;;4.15;2.47;;;19.20;99.90;;;;;;4979512;28;20049;-79
2023/07/24 00:04:35;;;;;;;2.90;2.22;;;19.20;99.90;;;;;;4975928;28;20625;-79
2023/07/24 00:07:01;;;;;;;2.72;2.22;;;19.20;99.90;;;;;;4986405;28;20125;-79
2023/07/24 00:09:26;;;;;;;3.45;2.70;;;19.20;99.90;;;;;;4976264;28;20029;-80
2023/07/24 00:11:52;;;;;;;4.70;2.40;;;19.10;99.90;;;;;;4972851;28;20039;-82
2023/07/24 00:14:17;;;;;;;3.28;2.13;;;19.20;99.90;;;;;;4978609;28;20088;-80
2023/07/24 00:16:43;;;;;;;4.68;1.83;;;19.10;99.90;;;;;;4978421;28;20030;-80
2023/07/24 00:19:11;;;;;;;2.10;1.90;;;19.10;99.90;;;;;;4977308;28;20030;-80
2023/07/24 00:21:37;;;;;;;3.60;2.28;;;19.00;99.90;;;;;;4977661;28;20434;-80
2023/07/24 00:24:12;;;;;;;3.25;2.20;;;19.10;99.90;;;;;;4971110;28;20030;-82
2023/07/24 00:26:37;;;;;;;3.38;2.38;;;19.10;99.90;;;;;;4977166;28;20038;-80
2023/07/24 00:29:03;;;;;;;5.43;2.42;;;19.00;99.90;;;;;;4975723;28;20065;-81
2023/07/24 00:31:28;;;;;;;3.40;2.05;;;19.10;99.90;;;;;;4978948;28;20570;-80
2023/07/24 00:33:54;;;;;;;4.00;2.05;;;19.10;99.90;;;;;;4970583;28;20011;-79
2023/07/24 00:36:20;;;;;;;2.53;1.65;;;19.20;99.90;;;;;;4981830;28;20049;-80
2023/07/24 00:38:45;;;;;;;2.85;2.00;;;19.10;99.90;;;;;;4978340;28;20026;-79
2023/07/24 00:41:11;;;;;;;3.90;2.17;;;19.20;99.90;;;;;;4979817;28;20097;-80
2023/07/24 00:43:36;;;;;;;2.65;2.00;;;19.20;99.90;;;;;;4978076;28;20034;-80
2023/07/24 00:46:02;;;;;;;4.78;2.38;;;19.20;99.90;;;;;;4975349;28;20506;-81
2023/07/24 00:48:28;;;;;;;4.93;2.20;;;19.20;99.90;;;;;;4978058;28;20345;-80
2023/07/24 00:50:54;;;;;;;2.95;2.03;;;19.20;99.90;;;;;;4974407;28;20184;-80
2023/07/24 00:53:22;;;;;;;3.22;2.10;;;19.30;99.90;;;;;;4978203;28;20065;-82
2023/07/24 00:55:48;;;;;;;5.57;2.55;;;19.20;99.90;;;;;;4977119;28;20271;-80
2023/07/24 00:58:16;;;;;;;3.50;2.78;;;19.00;99.90;;;;;;4972074;28;20033;-82
2023/07/24 01:00:42;;;;;;;2.38;2.15;;;18.90;99.90;;;;;;4978928;28;20034;-80
2023/07/24 01:03:09;;;;;;;3.03;2.50;;;18.90;99.90;;;;;;4978743;28;20031;-82
2023/07/24 01:05:34;;;;;;;5.32;2.50;;;18.80;99.90;;;;;;4975075;28;20029;-81
2023/07/24 01:08:00;;;;;;;4.40;2.13;;;18.90;99.90;;;;;;4975058;28;20415;-81
2023/07/24 01:10:28;;;;;;;4.35;2.40;;;18.80;99.90;;;;;;4977511;28;20026;-82
2023/07/24 01:13:12;;;;;;;7.60;2.95;;;18.90;99.90;;;;;;4976959;28;20457;-83
2023/07/24 01:16:00;;;;;;;8.02;2.30;;;18.80;99.90;;;;;;4977786;28;20057;-82
2023/07/24 01:18:29;;;;;;;4.65;2.95;;;18.80;99.90;;;;;;4978733;28;20026;-83
2023/07/24 01:20:57;;;;;;;9.40;3.40;;;18.70;99.90;;;;;;4972426;28;20029;-80
2023/07/24 01:23:37;;;;;;;4.88;2.75;;;18.80;99.90;;;;;;4969021;28;20023;-82
2023/07/24 01:26:04;;;;;;;6.78;2.95;;;18.80;99.90;;;;;;4975359;28;20479;-81
2023/07/24 01:28:29;;;;;;;4.97;3.53;;;18.60;99.90;;;;;;4973868;28;20030;-82
2023/07/24 01:30:57;;;;;;;4.47;2.95;;;18.70;99.90;;;;;;4978056;28;20045;-81
2023/07/24 01:33:26;;;;;;;3.78;3.08;;;18.70;99.90;;;;;;4972039;28;20057;-81
2023/07/24 01:36:00;;;;;;;9.07;3.13;;;18.80;99.90;;;;;;4976865;28;20484;-81
2023/07/24 01:38:26;;;;;;;4.93;3.58;;;18.70;99.90;;;;;;4975252;28;20110;-83
2023/07/24 01:40:58;;;;;;;7.22;3.30;;;18.70;99.90;;;;;;4975163;28;20088;-82
2023/07/24 01:43:26;;;;;;;7.20;3.67;;;18.70;99.90;;;;;;4980061;28;20125;-82
2023/07/24 01:45:52;;;;;;;12.15;4.30;;;18.60;99.90;;;;;;4977038;28;20034;-83
2023/07/24 01:48:18;;;;;;;3.80;3.33;;;18.60;99.90;;;;;;4976877;28;20041;-82
2023/07/24 01:50:44;;;;;;;6.97;3.38;;;18.70;99.90;;;;;;4976971;28;20033;-82
2023/07/24 01:53:09;;;;;;;5.30;3.58;;;18.80;99.90;;;;;;4986739;28;20042;-80
2023/07/24 01:55:35;;;;;;;11.52;3.67;;;18.90;99.90;;;;;;4990107;28;20042;-84
2023/07/24 01:58:01;;;;;;;9.43;3.90;;;18.80;99.90;;;;;;4981878;28;20084;-83
2023/07/24 02:00:26;;;;;;;6.43;3.30;;;18.70;99.90;;;;;;4973089;28;20518;-81
2023/07/24 02:02:52;;;;;;;10.25;3.83;;;18.70;99.90;;;;;;4967706;28;20038;-83
2023/07/24 02:05:18;;;;;;;5.65;3.40;;;18.70;99.90;;;;;;4976527;28;20042;-81
2023/07/24 02:07:43;;;;;;;9.65;3.95;;;18.70;99.90;;;;;;4980995;28;20023;-82
2023/07/24 02:10:09;;;;;;;6.80;4.20;;;18.80;99.90;;;;;;4983236;28;20030;-82
2023/07/24 02:12:35;;;;;;;5.57;3.90;;;18.80;99.90;;;;;;4981670;28;20411;-82
2023/07/24 02:15:01;;;;;;;10.65;3.80;;;18.80;99.90;;;;;;4982209;28;20052;-82
2023/07/24 02:17:26;;;;;;;5.40;4.03;;;18.80;99.90;;;;;;4980622;28;20101;-82
2023/07/24 02:19:52;;;;;;;8.75;4.10;;;18.80;99.90;;;;;;4983517;28;20050;-81
2023/07/24 02:22:17;;;;;;;9.07;3.85;;;18.80;99.90;;;;;;4982030;28;20189;-83
2023/07/24 02:24:43;;;;;;;7.60;3.97;;;18.90;99.90;;;;;;4978324;28;20030;-82
2023/07/24 02:27:14;;;;;;;6.07;4.00;;;19.00;99.90;;;;;;4990708;28;20856;-83
2023/07/24 02:29:39;;;;;;;6.97;4.05;;;19.00;99.90;;;;;;4981571;28;20391;-82
2023/07/24 02:32:05;;;;;;;5.05;3.50;;;19.10;99.90;;;;;;4981623;28;20038;-82
2023/07/24 02:34:33;;;;;;;10.43;4.57;;;19.10;99.90;;;;;;4979216;28;20089;-81
2023/07/24 02:36:58;;;;;;;6.70;3.83;;;19.00;99.90;;;;;;4980846;28;20680;-81
2023/07/24 02:39:24;;;;;;;8.35;3.50;;;19.10;99.90;;;;;;4979433;28;20093;-82
2023/07/24 02:41:50;;;;;;;8.23;4.00;;;19.10;99.90;;;;;;4983849;28;20022;-82
2023/07/24 02:44:15;;;;;;;8.88;4.20;;;19.10;99.90;;;;;;4980595;28;20810;-83
2023/07/24 02:46:41;;;;;;;8.80;3.80;;;19.10;99.90;;;;;;4979955;28;20026;-82
2023/07/24 02:49:10;;;;;;;8.10;4.43;;;19.00;99.90;;;;;;4981367;28;20029;-82
2023/07/24 02:51:35;;;;;;;8.68;4.40;;;19.10;99.90;;;;;;4973187;28;20394;-81
2023/07/24 02:54:01;;;;;;;11.05;3.90;;;19.20;99.90;;;;;;4977982;28;20019;-82
2023/07/24 02:56:26;;;;;;;11.98;4.05;;;19.20;99.90;;;;;;4979611;28;20085;-83
2023/07/24 02:58:52;;;;;;;13.95;4.70;;;19.10;99.90;;;;;;4979175;28;20026;-82
2023/07/24 03:01:18;;;;;;;7.00;4.10;;;19.10;99.90;;;;;;4987074;28;20038;-83
2023/07/24 03:03:43;;;;;;;7.50;3.95;;;19.10;99.90;;;;;;4977541;28;20084;-81
2023/07/24 03:06:09;;;;;;;5.40;4.25;;;19.20;99.90;;;;;;4979065;28;20442;-82
2023/07/24 03:08:35;;;;;;;8.57;4.57;;;19.20;99.90;;;;;;4978485;28;20113;-81
2023/07/24 03:11:04;;;;;;;14.65;3.90;;;19.20;99.90;;;;;;4980333;28;20031;-82
2023/07/24 03:13:30;;;;;;;13.10;4.28;;;19.20;99.90;;;;;;4979949;28;20030;-82
2023/07/24 03:15:57;;;;;;;6.13;3.47;;;19.20;99.90;;;;;;4978393;28;20738;-81
2023/07/24 03:18:22;;;;;;;6.53;4.30;;;19.20;99.90;;;;;;4978604;28;21011;-82
2023/07/24 03:20:48;;;;;;;7.18;4.28;;;19.20;99.90;;;;;;4978973;28;20790;-83
2023/07/24 03:23:14;;;;;;;9.32;4.85;;;19.30;99.90;;;;;;4980445;28;20453;-82
2023/07/24 03:25:40;;;;;;;10.85;4.88;;;19.30;99.90;;;;;;4978571;28;20437;-83
2023/07/24 03:28:08;;;;;;;7.95;4.53;;;19.40;99.90;;;;;;4973996;28;20076;-83
2023/07/24 03:30:33;;;;;;;9.57;4.25;;;19.20;99.90;;;;;;4978470;28;20547;-82
2023/07/24 03:32:59;;;;;;;11.05;4.85;;;19.20;99.90;;;;;;4979676;28;20209;-82
2023/07/24 03:35:27;;;;;;;11.48;4.47;;;19.20;99.90;;;;;;4982277;28;20018;-82
2023/07/24 03:37:53;;;;;;;7.53;4.53;;;19.10;99.90;;;;;;4982684;28;20026;-82
2023/07/24 03:40:21;;;;;;;9.25;5.10;;;18.70;99.90;;;;;;4983730;28;20046;-83
2023/07/24 03:42:46;;;;;;;9.27;4.55;;;18.80;99.90;;;;;;4978224;28;20050;-83
2023/07/24 03:45:12;;;;;;;12.20;5.43;;;18.70;99.90;;;;;;4980233;28;20573;-83
2023/07/24 03:47:37;;;;;;;6.93;5.00;;;18.60;99.90;;;;;;4976385;28;20038;-82
2023/07/24 03:50:03;;;;;;;6.70;5.30;;;18.70;99.90;;;;;;4980424;28;20096;-82
2023/07/24 03:52:29;;;;;;;7.32;5.03;;;18.50;99.90;;;;;;4981311;28;20034;-83
2023/07/24 03:54:54;;;;;;;6.30;4.85;;;18.50;99.90;;;;;;4979715;28;20612;-83
2023/07/24 03:57:22;;;;;;;7.72;4.90;;;18.60;99.90;;;;;;4973307;28;20069;-82
2023/07/24 03:59:48;;;;;;;9.85;5.03;;;18.60;99.90;;;;;;4974983;28;20447;-83
2023/07/24 04:02:14;;;;;;;14.82;5.22;;;18.60;99.90;;;;;;4982218;28;20058;-83
2023/07/24 04:04:39;;;;;;;17.02;4.95;;;18.70;99.90;;;;;;4980816;28;20106;-83
2023/07/24 04:07:05;;;;;;;15.13;5.00;;;18.70;99.90;;;;;;4980275;28;20053;-83
2023/07/24 04:09:34;;;;;;;10.65;4.93;;;18.70;99.90;;;;;;4977633;28;20018;-82
2023/07/24 04:12:02;;;;;;;8.23;5.38;;;18.80;99.90;;;;;;4977616;28;20640;-82
2023/07/24 04:14:31;;;;;;;12.30;5.05;;;18.80;99.90;;;;;;4979081;28;20277;-81
2023/07/24 04:16:57;;;;;;;6.70;4.50;;;18.80;99.90;;;;;;4977217;28;20097;-81
2023/07/24 04:19:23;;;;;;;11.65;5.35;;;18.70;99.90;;;;;;4976540;28;20025;-81
2023/07/24 04:21:50;;;;;;;6.93;4.05;;;18.80;99.90;;;;;;4975887;28;20044;-82
2023/07/24 04:24:16;;;;;;;7.88;4.25;;;18.70;99.90;;;;;;4978749;28;20033;-81
2023/07/24 04:26:42;;;;;;;8.30;3.83;;;18.60;99.90;;;;;;4979842;28;20034;-81
2023/07/24 04:29:07;;;;;;;7.15;3.95;;;18.70;99.90;;;;;;4978195;28;20042;-82
2023/07/24 04:31:33;;;;;;;8.55;3.63;;;18.80;99.90;;;;;;4979583;28;20100;-81
2023/07/24 04:34:01;;;;;;;6.63;3.80;;;18.80;99.90;;;;;;4978463;28;20073;-81
2023/07/24 04:36:27;;;;;;;5.30;3.58;;;18.90;99.90;;;;;;4979827;28;20022;-80
2023/07/24 04:38:52;;;;;;;7.47;3.83;;;18.90;99.90;;;;;;4977639;28;20023;-81
2023/07/24 04:41:18;;;;;;;6.22;3.20;;;19.00;99.90;;;;;;4975377;28;20037;-82
2023/07/24 04:43:44;;;;;;;7.75;3.60;;;18.90;99.90;;;;;;4978519;28;20035;-82
2023/07/24 04:46:09;;;;;;;3.55;3.10;;;19.00;99.90;;;;;;4977863;28;20030;-83
2023/07/24 04:48:35;;;;;;;3.50;2.80;;;19.00;99.90;;;;;;4978334;28;20029;-82
2023/07/24 04:51:03;;;;;;;4.25;3.13;;;19.00;99.90;;;;;;4978152;28;20049;-83
2023/07/24 04:53:28;;;;;;;3.55;2.70;;;19.00;99.90;;;;;;4979438;28;20514;-82
2023/07/24 04:55:56;;;;;;;5.65;2.88;;;18.90;99.90;;;;;;4980790;28;20034;-82
2023/07/24 04:58:22;;;;;;;6.22;2.83;;;18.70;99.90;;;;;;4978271;28;20018;-82
2023/07/24 05:00:47;;;;;;;3.72;2.70;;;18.80;99.90;;;;;;4979411;28;20271;-83
2023/07/24 05:03:13;;;;;;;4.28;2.45;;;18.80;99.90;;;;;;4979000;28;20037;-82
2023/07/24 05:05:38;;;;;;;4.80;2.58;;;18.90;99.90;;;;;;4978533;28;20034;-82
2023/07/24 05:08:05;;;;;;;4.18;2.28;;;19.00;99.90;;;;;;4977268;28;20030;-83
2023/07/24 05:10:35;;;;;;;3.45;2.38;;;19.00;99.90;;;;;;4970876;28;20035;-82
2023/07/24 05:13:01;;;;;;;2.45;2.05;;;19.00;99.90;;;;;;4977314;28;20064;-83
2023/07/24 05:15:26;;;;;;;2.78;2.50;;;19.00;99.90;;;;;;4976103;28;20026;-83
2023/07/24 05:17:52;;;;;;;5.15;2.50;;;19.00;99.90;;;;;;4978800;28;20034;-82
2023/07/24 05:20:17;;;;;;;3.30;2.30;;;19.00;99.90;;;;;;4978417;28;20383;-83
2023/07/24 05:22:43;;;;;;;3.35;2.30;;;18.90;99.90;;;;;;4983557;28;20049;-82
2023/07/24 05:25:09;;;;;;;3.53;2.15;;;18.90;99.90;;;;;;4979614;28;20545;-83
2023/07/24 05:27:39;;;;;;;4.25;2.00;;;18.80;99.90;;;;;;4971558;28;20029;-82
2023/07/24 05:30:06;;;;;;;5.13;1.95;;;18.80;99.90;;;;;;4978622;28;20048;-84
2023/07/24 05:32:31;;;;;;;2.50;1.73;;;18.70;99.90;;;;;;4976739;28;20591;-83
2023/07/24 05:34:57;;;;;;;1.60;1.50;;;18.70;99.90;;;;;;4978571;28;20117;-83
2023/07/24 05:37:22;;;;;;;1.67;1.58;;;18.70;99.90;;;;;;4976790;28;20085;-83
2023/07/24 05:39:48;;;;;;;1.85;1.30;;;18.60;99.90;;;;;;4968675;28;20062;-83
2023/07/24 05:42:14;;;;;;;1.83;1.58;;;18.60;99.90;;;;;;4976453;28;20030;-83
2023/07/24 05:44:39;;;;;;;3.28;1.40;;;18.50;99.90;;;;;;4978889;28;20022;-82
2023/07/24 05:47:05;;;;;;;1.63;1.52;;;18.60;99.90;;;;;;4975365;28;20042;-82
2023/07/24 05:49:30;;;;;;;1.50;1.40;;;18.50;99.90;;;;;;4980030;28;20022;-80
2023/07/24 05:51:56;;;;;;;1.75;1.48;;;18.60;99.90;;;;;;4977759;28;20096;-80
2023/07/24 05:54:24;;;;;;;3.45;1.70;;;18.60;99.90;;;;;;4976756;28;20022;-81
2023/07/24 05:56:52;;;;;;;2.15;1.60;;;18.60;99.90;;;;;;4970181;28;20089;-80
2023/07/24 05:59:17;;;;;;;2.67;1.80;;;18.40;99.90;;;;;;4974183;28;20019;-81
2023/07/24 06:01:43;;;;;;;4.32;1.80;;;18.30;99.90;;;;;;4977859;28;20052;-80
2023/07/24 06:04:08;;;;;;;2.45;1.92;;;18.30;99.90;;;;;;4979801;28;20152;-80
2023/07/24 06:06:36;;;;;;;2.90;2.03;;;18.10;99.90;;;;;;4975879;28;20030;-80
2023/07/24 06:09:02;;;;;;;2.78;1.80;;;18.20;99.90;;;;;;4977497;28;20489;-80
2023/07/24 06:11:28;;;;;;;4.25;1.90;;;18.30;99.90;;;;;;4971722;28;20074;-80
2023/07/24 06:13:54;;;;;;;3.95;2.30;;;18.30;99.90;;;;;;4976388;28;20641;-80
2023/07/24 06:16:19;;;;;;;2.65;2.45;;;18.40;99.90;;;;;;4977773;28;20077;-80
2023/07/24 06:18:45;;;;;;;3.47;2.40;;;18.30;99.90;;;;;;4978186;28;20607;-79
2023/07/24 06:21:11;;;;;;;2.67;2.28;;;18.40;99.90;;;;;;4976993;28;20018;-79
2023/07/24 06:23:36;;;;;;;6.90;2.85;;;18.50;99.90;;;;;;4979649;28;20497;-78
2023/07/24 06:26:02;;;;;;;3.63;2.85;;;18.50;99.90;;;;;;4975595;28;20023;-79
2023/07/24 06:28:28;;;;;;;3.25;2.33;;;18.40;99.90;;;;;;4980425;28;20126;-79
2023/07/24 06:30:56;;;;;;;2.72;2.38;;;18.40;99.90;;;;;;4977981;28;20373;-79
2023/07/24 06:33:24;;;;;;;4.75;2.53;;;18.40;99.90;;;;;;4977623;28;20092;-79
2023/07/24 06:35:50;;;;;;;3.67;2.63;;;18.40;99.90;;;;;;4974942;28;20068;-79
2023/07/24 06:38:16;;;;;;;3.45;2.50;;;18.40;99.90;;;;;;4977706;28;20057;-78
2023/07/24 06:40:45;;;;;;;2.70;2.40;;;18.30;99.90;;;;;;4979281;28;20058;-78
2023/07/24 06:43:10;;;;;;;3.28;2.35;;;18.30;99.90;;;;;;4978107;28;20166;-79
2023/07/24 06:45:36;;;;;;;3.10;2.83;;;18.30;99.90;;;;;;4977212;28;20516;-79
2023/07/24 06:48:02;;;;;;;3.50;3.08;;;18.40;99.90;;;;;;4975385;28;20274;-79
2023/07/24 06:50:27;;;;;;;4.13;2.47;;;18.40;99.90;;;;;;4982653;28;20057;-79
2023/07/24 06:52:55;;;;;;;4.47;3.72;;;18.50;99.90;;;;;;4977081;28;20040;-79
2023/07/24 06:55:20;;;;;;;9.05;2.83;;;18.50;99.90;;;;;;4977977;28;20041;-79
2023/07/24 06:57:46;;;;;;;3.58;3.03;;;18.50;99.90;;;;;;4981215;28;20035;-80
2023/07/24 07:00:12;;;;;;;3.22;2.65;;;18.60;99.90;;;;;;4981170;28;20026;-80
2023/07/24 07:02:41;;;;;;;2.80;2.60;;;18.70;99.90;;;;;;4981444;28;20036;-79
2023/07/24 07:05:07;;;;;;;3.38;3.10;;;18.50;99.90;;;;;;4982953;28;20097;-81
2023/07/24 07:07:33;;;;;;;3.35;2.88;;;18.50;99.90;;;;;;4982596;28;20436;-81
2023/07/24 07:09:58;;;;;;;3.38;2.85;;;18.70;99.90;;;;;;4981331;28;20015;-80
2023/07/24 07:12:24;;;;;;;2.70;2.50;;;18.60;99.90;;;;;;4977142;28;20045;-81
2023/07/24 07:14:50;;;;;;;5.00;3.03;;;18.60;99.90;;;;;;4979094;28;20541;-80
2023/07/24 07:17:15;;;;;;;3.10;2.80;;;18.60;99.90;;;;;;4981575;28;20029;-80
2023/07/24 07:19:41;;;;;;;3.25;2.55;;;18.70;99.90;;;;;;4979301;28;20331;-81
2023/07/24 07:22:06;;;;;;;3.08;2.75;;;18.70;99.90;;;;;;4980301;28;20101;-80
2023/07/24 07:24:32;;;;;;;3.00;2.70;;;18.80;99.90;;;;;;4981059;28;20085;-80
2023/07/24 07:26:58;;;;;;;3.65;3.13;;;18.80;99.90;;;;;;4978736;28;20037;-81
2023/07/24 07:29:23;;;;;;;7.18;3.38;;;18.70;99.90;;;;;;4976334;28;20418;-81
2023/07/24 07:31:49;;;;;;;3.47;3.17;;;18.60;99.90;;;;;;4980834;28;20062;-81
2023/07/24 07:34:14;;;;;;;2.97;2.75;;;18.70;99.90;;;;;;4977115;28;20023;-80
2023/07/24 07:36:40;;;;;;;3.40;3.08;;;18.90;99.90;;;;;;4981028;28;20030;-80
2023/07/24 07:39:06;;;;;;;3.92;2.90;;;18.90;99.90;;;;;;4978128;28;20030;-81
2023/07/24 07:41:31;;;;;;;3.55;3.28;;;18.90;99.90;;;;;;4980860;28;20057;-82
2023/07/24 07:44:00;;;;;;;4.68;3.60;;;18.80;99.90;;;;;;4979507;28;20022;-81
2023/07/24 07:46:25;;;;;;;4.90;4.47;;;18.80;99.90;;;;;;4985458;28;20027;-80
2023/07/24 07:48:51;;;;;;;5.03;4.35;;;18.80;99.90;;;;;;4984449;28;20033;-80
2023/07/24 07:51:16;;;;;;;5.97;4.93;;;18.70;99.90;;;;;;4981661;28;20038;-80
2023/07/24 07:53:44;;;;;;;5.18;4.65;;;18.80;99.90;;;;;;4982905;28;20026;-80
2023/07/24 07:56:12;;;;;;;4.88;4.45;;;18.80;99.90;;;;;;4983709;28;20030;-82
2023/07/24 07:58:38;;;;;;;7.40;4.50;;;18.90;99.90;;;;;;4979800;28;20109;-80
2023/07/24 08:01:07;;;;;;;4.70;4.25;;;19.20;99.90;;;;;;4985629;28;20725;-80
2023/07/24 08:03:33;;;;;;;9.48;4.53;;;19.30;99.90;;;;;;4982679;28;20077;-81
2023/07/24 08:06:01;;;;;;;5.35;4.85;;;19.40;99.90;;;;;;4983118;28;20051;-80
2023/07/24 08:08:26;;;;;;;9.05;5.28;;;19.40;99.90;;;;;;4977540;28;20018;-80
2023/07/24 08:10:52;;;;;;;5.68;5.10;;;19.40;99.90;;;;;;4982358;28;20425;-80
2023/07/24 08:13:18;;;;;;;7.05;4.88;;;19.30;99.90;;;;;;4987955;28;20870;-80
2023/07/24 08:15:43;;;;;;;6.03;5.43;;;19.30;99.90;;;;;;4980293;28;20019;-79
2023/07/24 08:18:11;;;;;;;6.97;5.20;;;19.30;99.90;;;;;;4972790;28;20026;-80
2023/07/24 08:20:38;;;;;;;5.88;5.20;;;19.40;99.90;;;;;;4981937;28;20454;-81
2023/07/24 08:23:04;;;;;;;8.90;5.47;;;19.50;99.90;;;;;;4981315;28;20049;-81
2023/07/24 08:25:29;;;;;;;6.40;5.80;;;19.60;99.90;;;;;;4979288;28;20062;-80
2023/07/24 08:27:55;;;;;;;6.38;5.65;;;19.80;99.90;;;;;;4981264;28;20153;-80
2023/07/24 08:30:23;;;;;;;6.45;5.32;;;19.80;99.90;;;;;;4984056;28;20030;-80
2023/07/24 08:32:53;;;;;;;10.30;5.90;;;19.70;99.90;;;;;;4980346;28;20093;-80
2023/07/24 08:35:18;;;;;;;8.75;5.60;;;19.60;99.90;;;;;;4982043;28;20513;-81
2023/07/24 08:37:47;;;;;;;7.50;5.22;;;19.60;99.90;;;;;;4982600;28;20041;-81
2023/07/24 08:40:12;;;;;;;10.52;5.95;;;19.60;99.90;;;;;;4978889;28;20118;-78
2023/07/24 08:42:43;;;;;;;7.50;5.78;;;19.60;99.90;;;;;;4982119;28;20105;-81
2023/07/24 08:45:15;;;;;;;7.90;6.07;;;19.70;99.90;;;;;;4979666;28;20037;-78
2023/07/24 08:47:44;;;;;;;6.85;6.13;;;19.90;99.90;;;;;;4981231;28;20042;-80
2023/07/24 08:50:14;;;;;;;7.55;6.10;;;20.00;99.90;;;;;;4981478;28;20030;-78
2023/07/24 08:52:42;;;;;;;7.75;5.63;;;20.00;99.90;;;;;;4980222;28;20109;-79
2023/07/24 08:55:08;;;;;;;8.27;4.75;;;20.10;99.90;;;;;;4976615;28;20023;-79
2023/07/24 08:57:34;;;;;;;6.00;5.07;;;20.20;99.90;;;;;;4981170;28;20682;-79
2023/07/24 09:00:04;;;;;;;7.60;4.53;;;20.40;99.90;;;;;;4978689;28;20018;-82
2023/07/24 09:02:31;;;;;;;7.38;4.75;;;20.40;99.90;;;;;;4980923;28;20077;-83
2023/07/24 09:04:57;;;;;;;5.47;4.22;;;20.40;99.90;;;;;;4981101;28;20031;-80
2023/07/24 09:07:22;;;;;;;11.50;4.82;;;20.50;99.90;;;;;;4986622;28;20056;-86
2023/07/24 09:09:49;;;;;;;6.25;3.83;;;20.70;99.90;;;;;;4989533;28;20389;-85
2023/07/24 09:12:16;;;;;;;4.43;4.00;;;20.80;99.90;;;;;;4989268;28;20700;-82
2023/07/24 09:14:41;;;;;;;9.80;3.80;;;20.90;99.90;;;;;;4980342;28;20512;-82
2023/07/24 09:17:13;;;;;;;5.93;3.45;;;21.00;99.90;;;;;;4981594;28;20035;-82
2023/07/24 09:19:41;;;;;;;4.07;3.17;;;21.10;99.90;;;;;;4979548;28;20117;-82
2023/07/24 09:22:17;;;;;;;3.65;3.35;;;21.10;99.90;;;;;;4981723;28;20026;-82
2023/07/24 09:24:57;;;;;;;6.57;3.15;;;21.30;99.90;;;;;;4975699;28;20501;-82
2023/07/24 09:27:28;;;;;;;4.78;3.15;;;21.30;99.90;;;;;;4981350;28;20045;-83
2023/07/24 09:29:55;;;;;;;5.80;3.63;;;21.40;99.90;;;;;;4979753;28;20686;-79
2023/07/24 09:32:30;;;;;;;3.63;3.15;;;21.50;99.90;;;;;;4973518;28;20045;-83
2023/07/24 09:34:56;;;;;;;3.58;3.15;;;21.70;99.80;;;;;;4974136;28;20034;-81
2023/07/24 09:37:33;;;;;;;3.78;3.28;;;22.00;99.70;;;;;;4977622;28;20485;-81
2023/07/24 09:39:59;;;;;;;7.07;3.85;;;22.20;99.10;;;;;;4980496;28;20426;-83
2023/07/24 09:42:29;;;;;;;66.00;30.92;;;22.10;97.90;;;;;;4983211;28;20037;-86
2023/07/24 09:44:57;;;;;;;3.80;3.47;;;22.10;98.80;;;;;;4980176;28;20091;-82
2023/07/24 09:47:24;;;;;;;4.53;3.13;;;22.20;99.90;;;;;;4988454;28;20121;-83
2023/07/24 09:49:52;;;;;;;3.95;3.10;;;22.30;99.10;;;;;;4981290;28;20030;-82
2023/07/24 09:52:19;;;;;;;3.53;2.75;;;22.20;99.20;;;;;;4982339;28;20613;-82
2023/07/24 09:54:54;;;;;;;4.70;3.47;;;22.30;98.30;;;;;;4982611;28;20026;-82
2023/07/24 09:57:20;;;;;;;3.10;2.67;;;22.20;98.40;;;;;;4973814;28;20536;-80
2023/07/24 09:59:47;;;;;;;5.47;3.17;;;22.10;98.40;;;;;;4978881;28;20030;-82
2023/07/24 10:02:12;;;;;;;3.83;3.00;;;22.10;98.00;;;;;;4980847;28;20851;-83
2023/07/24 10:04:41;;;;;;;4.05;3.25;;;21.80;98.60;;;;;;4978795;28;20176;-83
2023/07/24 10:07:09;;;;;;;6.45;2.90;;;21.80;98.00;;;;;;4977728;28;20025;-84
2023/07/24 10:09:36;;;;;;;3.78;3.40;;;22.00;97.40;;;;;;4979351;28;20027;-84
2023/07/24 10:12:03;;;;;;;7.35;3.38;;;21.90;98.10;;;;;;4978340;28;20550;-82
2023/07/24 10:14:30;;;;;;;3.83;3.38;;;21.80;98.70;;;;;;4978695;28;20035;-81
2023/07/24 10:16:56;;;;;;;71.10;37.40;;;22.40;98.30;;;;;;4977787;28;20022;-82
2023/07/24 10:19:22;;;;;;;53.92;25.52;;;23.10;98.10;;;;;;4985906;28;20088;-83
2023/07/24 10:21:50;;;;;;;3.85;3.55;;;23.80;95.90;;;;;;4978629;28;20023;-83
2023/07/24 10:24:22;;;;;;;4.68;3.20;;;24.20;95.10;;;;;;4983913;28;20065;-81
2023/07/24 10:26:48;;;;;;;9.23;3.30;;;24.50;93.40;;;;;;4979684;28;20037;-83
2023/07/24 10:29:14;;;;;;;7.78;3.58;;;24.80;92.90;;;;;;4982534;28;20026;-79
2023/07/24 10:31:40;;;;;;;3.78;2.90;;;24.80;92.50;;;;;;4981063;28;20046;-80
2023/07/24 10:34:07;;;;;;;3.70;3.40;;;24.70;91.40;;;;;;4981046;28;20030;-80
2023/07/24 10:36:38;;;;;;;4.25;3.10;;;24.90;92.70;;;;;;4980833;28;20859;-83
2023/07/24 10:39:15;;;;;;;3.65;3.35;;;25.30;93.70;;;;;;4978388;28;20022;-83
2023/07/24 10:41:40;;;;;;;3.35;3.05;;;25.90;91.20;;;;;;4982789;28;20022;-82
2023/07/24 10:44:09;;;;;;;4.80;3.15;;;25.50;90.60;;;;;;4981294;28;20034;-83
2023/07/24 10:46:39;;;;;;;5.03;2.90;;;25.60;90.50;;;;;;4983560;28;20027;-84
2023/07/24 10:49:06;;;;;;;6.78;3.00;;;25.20;89.50;;;;;;4985195;28;20034;-83
2023/07/24 10:51:33;;;;;;;24.30;12.75;;;24.60;90.60;;;;;;4982193;28;20034;-84
2023/07/24 10:54:00;;;;;;;4.05;3.22;;;24.50;91.30;;;;;;4981482;28;20921;-82
2023/07/24 10:56:26;;;;;;;4.07;3.13;;;24.30;91.60;;;;;;4982269;28;20548;-82
2023/07/24 10:58:51;;;;;;;4.90;3.25;;;24.10;92.10;;;;;;4980312;28;20323;-82
2023/07/24 11:01:18;;;;;;;3.22;2.92;;;24.00;91.70;;;;;;4978854;28;20089;-82
2023/07/24 11:03:44;;;;;;;3.22;2.92;;;24.00;92.20;;;;;;4981142;28;20030;-82
2023/07/24 11:06:18;;;;;;;3.95;3.60;;;23.90;92.40;;;;;;4988084;28;20531;-83
2023/07/24 11:08:58;;;;;;;4.13;3.72;;;23.90;92.70;;;;;;4978898;28;20663;-82
2023/07/24 11:11:30;;;;;;;7.28;4.25;;;23.80;92.80;;;;;;4980275;28;20080;-83
2023/07/24 11:13:56;;;;;;;5.18;3.28;;;23.80;93.00;;;;;;4974869;28;20125;-82
2023/07/24 11:16:22;;;;;;;6.47;4.05;;;23.70;93.10;;;;;;4982267;28;20105;-82
2023/07/24 11:18:51;;;;;;;6.50;3.65;;;23.50;93.10;;;;;;4982099;28;20038;-83
2023/07/24 11:21:18;;;;;;;3.97;3.58;;;23.50;93.40;;;;;;4984098;28;20067;-82
2023/07/24 11:23:52;;;;;;;4.32;3.92;;;23.40;93.60;;;;;;4985314;28;20705;-82
2023/07/24 11:26:22;;;;;;;8.25;4.43;;;23.20;93.80;;;;;;4977029;28;20121;-82
2023/07/24 11:28:48;;;;;;;4.05;3.67;;;23.10;94.20;;;;;;4985146;28;20098;-82
2023/07/24 11:31:15;;;;;;;4.85;3.78;;;22.80;94.60;;;;;;4983197;28;20034;-82
2023/07/24 11:33:42;;;;;;;4.07;3.67;;;22.70;95.10;;;;;;4983205;28;20030;-82
2023/07/24 11:36:11;;;;;;;5.63;4.30;;;22.60;95.70;;;;;;4983976;28;20546;-82
2023/07/24 11:38:38;;;;;;;4.68;3.72;;;22.30;96.20;;;;;;4984225;28;20042;-83
2023/07/24 11:41:04;;;;;;;4.75;4.05;;;22.20;96.90;;;;;;4981140;28;20041;-82
2023/07/24 11:43:30;;;;;;;7.32;4.28;;;22.20;97.00;;;;;;4981730;28;20023;-82
2023/07/24 11:45:56;;;;;;;6.38;4.47;;;22.10;97.50;;;;;;4983302;28;20085;-82
2023/07/24 11:48:26;;;;;;;5.45;4.70;;;22.10;97.90;;;;;;4983509;28;20022;-81
2023/07/24 11:51:00;;;;;;;7.80;5.00;;;22.10;98.10;;;;;;4982659;28;20038;-82
2023/07/24 11:53:30;;;;;;;6.20;4.72;;;22.00;99.60;;;;;;4984783;28;20520;-82
2023/07/24 11:56:01;;;;;;;7.72;5.40;;;22.10;99.90;;;;;;4984215;28;20030;-82
2023/07/24 11:58:28;;;;;;;7.55;6.10;;;22.30;99.30;;;;;;4990508;28;20121;-82
2023/07/24 12:00:55;;;;;;;10.43;5.20;;;22.70;99.90;;;;;;4976106;28;20122;-82
2023/07/24 12:03:21;;;;;;;5.35;4.82;;;23.10;98.40;;;;;;4983013;28;20329;-82
2023/07/24 12:05:48;;;;;;;6.68;5.63;;;23.30;97.10;;;;;;4981711;28;20080;-81
2023/07/24 12:08:17;;;;;;;7.97;5.50;;;23.30;96.20;;;;;;4976977;28;20026;-82
2023/07/24 12:10:43;;;;;;;7.60;6.80;;;23.20;96.70;;;;;;4980200;28;20077;-82
2023/07/24 12:13:09;;;;;;;6.78;6.07;;;23.20;96.90;;;;;;4984791;28;20039;-84
2023/07/24 12:15:37;;;;;;;7.63;6.53;;;23.30;95.90;;;;;;4978048;28;20109;-82
2023/07/24 12:18:04;;;;;;;7.50;6.35;;;23.30;95.20;;;;;;4984719;28;20033;-82
2023/07/24 12:20:31;;;;;;;9.25;7.32;;;23.40;95.70;;;;;;4985304;28;20676;-81
2023/07/24 12:22:57;;;;;;;10.95;7.05;;;23.20;96.10;;;;;;4985052;28;20023;-81
2023/07/24 12:25:22;;;;;;;12.13;8.32;;;22.70;96.70;;;;;;4984505;28;20029;-81
2023/07/24 12:27:48;;;;;;;8.60;7.55;;;23.10;96.50;;;;;;4985144;28;20049;-81
2023/07/24 12:30:14;;;;;;;9.13;7.38;;;23.40;96.00;;;;;;4983474;28;20104;-81
2023/07/24 12:32:40;;;;;;;8.70;7.78;;;23.60;94.30;;;;;;4984653;28;20046;-81
2023/07/24 12:35:07;;;;;;;8.00;6.50;;;23.80;94.30;;;;;;4983472;28;20065;-81
2023/07/24 12:37:33;;;;;;;8.18;7.00;;;23.60;94.50;;;;;;4979284;28;20027;-81
2023/07/24 12:39:59;;;;;;;9.45;7.05;;;23.40;94.50;;;;;;4985067;28;20073;-82
2023/07/24 12:42:24;;;;;;;117.20;60.63;;;23.50;95.00;;;;;;4982802;28;20438;-84
2023/07/24 12:44:50;;;;;;;40.85;20.25;;;23.50;94.90;;;;;;4982268;28;20474;-85